createdAt,value
2022-11-01T00:02:37.084Z,53.86
2022-11-01T00:07:41.385Z,53.89
2022-11-01T00:12:45.450Z,54.19
2022-11-01T00:17:48.328Z,54.25
2022-11-01T00:22:52.358Z,54.58
2022-11-01T00:27:55.040Z,54.69
2022-11-01T00:32:57.767Z,54.68
2022-11-01T00:38:02.064Z,54.78
2022-11-01T00:43:06.833Z,54.87
2022-11-01T00:48:09.535Z,55.02
2022-11-01T00:53:13.828Z,54.89
2022-11-01T00:58:16.974Z,55.11
2022-11-01T01:03:19.735Z,55.21
2022-11-01T01:08:24.034Z,55.22
2022-11-01T01:13:26.774Z,55.02
2022-11-01T01:18:29.458Z,55.04
2022-11-01T01:23:33.665Z,55.23
2022-11-01T01:28:41.672Z,54.87
2022-11-01T01:33:47.568Z,55.59
2022-11-01T01:38:53.541Z,55.81
2022-11-01T01:43:56.211Z,56.22
2022-11-01T01:48:59.543Z,56.42
2022-11-01T01:54:03.618Z,56.75
2022-11-01T01:59:07.526Z,56.89
2022-11-01T02:04:11.739Z,56.81
2022-11-01T02:09:15.763Z,57.09
2022-11-01T02:14:18.456Z,57.06
2022-11-01T02:19:40.265Z,57.20
2022-11-01T02:24:53.805Z,57.23
2022-11-01T02:30:06.657Z,57.25
2022-11-01T02:35:14.609Z,57.48
2022-11-01T02:40:20.274Z,57.39
2022-11-01T02:45:29.007Z,57.57
2022-11-01T02:50:34.620Z,57.90
2022-11-01T02:55:37.351Z,57.90
2022-11-01T03:00:41.201Z,57.90
2022-11-01T03:05:58.648Z,58.08
2022-11-01T03:11:06.242Z,58.52
2022-11-01T03:16:13.372Z,58.65
2022-11-01T03:21:21.200Z,58.78
2022-11-01T03:26:26.639Z,58.92
2022-11-01T03:31:30.512Z,59.21
2022-11-01T03:36:38.410Z,59.29
2022-11-01T03:41:44.639Z,59.33
2022-11-01T03:46:47.753Z,59.35
2022-11-01T03:51:52.011Z,59.58
2022-11-01T03:56:54.909Z,59.61
2022-11-01T04:01:57.955Z,59.82
2022-11-01T04:07:02.126Z,60.04
2022-11-01T04:12:05.596Z,59.79
2022-11-01T04:17:26.892Z,59.79
2022-11-01T04:22:30.887Z,59.80
2022-11-01T04:27:33.744Z,60.06
2022-11-01T04:32:36.378Z,60.03
2022-11-01T04:37:40.437Z,60.04
2022-11-01T04:42:43.221Z,59.91
2022-11-01T04:47:52.121Z,59.97
2022-11-01T04:52:56.123Z,59.96
2022-11-01T04:57:58.878Z,59.84
2022-11-01T05:03:02.609Z,59.89
2022-11-01T05:08:07.758Z,59.95
2022-11-01T05:13:10.566Z,59.92
2022-11-01T05:18:13.229Z,59.89
2022-11-01T05:23:17.258Z,59.68
2022-11-01T05:28:19.981Z,59.62
2022-11-01T05:33:22.620Z,59.80
2022-11-01T05:38:26.742Z,59.66
2022-11-01T05:43:29.428Z,59.49
2022-11-01T05:48:32.075Z,59.63
2022-11-01T05:53:36.140Z,59.52
2022-11-01T05:58:38.938Z,59.39
2022-11-01T06:03:41.617Z,59.63
2022-11-01T06:08:45.909Z,59.45
2022-11-01T06:13:48.594Z,59.55
2022-11-01T06:18:51.340Z,59.47
2022-11-01T06:23:55.426Z,59.44
2022-11-01T06:29:01.493Z,59.58
2022-11-01T06:34:04.884Z,59.41
2022-11-01T06:39:10.913Z,59.33
2022-11-01T06:44:14.669Z,59.42
2022-11-01T06:49:19.145Z,59.56
2022-11-01T06:54:23.522Z,59.41
2022-11-01T06:59:26.369Z,59.15
2022-11-01T07:04:29.697Z,59.11
2022-11-01T07:09:33.987Z,59.13
2022-11-01T07:14:36.637Z,59.17
2022-11-01T07:19:39.319Z,59.02
2022-11-01T07:24:43.268Z,59.15
2022-11-01T07:29:45.972Z,58.78
2022-11-01T07:34:48.785Z,58.94
2022-11-01T07:39:52.807Z,58.82
2022-11-01T07:44:55.651Z,58.80
2022-11-01T07:49:58.312Z,58.60
2022-11-01T07:55:02.373Z,58.54
2022-11-01T08:00:06.212Z,58.43
2022-11-01T08:05:15.288Z,58.55
2022-11-01T08:10:19.542Z,58.31
2022-11-01T08:15:22.577Z,51.32
2022-11-01T08:20:25.415Z,51.43
2022-11-01T08:25:29.435Z,51.36
2022-11-01T08:30:32.432Z,52.03
2022-11-01T08:35:35.236Z,52.21
2022-11-01T08:40:40.270Z,52.26
2022-11-01T08:45:42.996Z,52.94
2022-11-01T08:50:45.688Z,53.28
2022-11-01T08:55:50.070Z,53.31
2022-11-01T09:00:52.894Z,53.71
2022-11-01T09:05:55.673Z,54.05
2022-11-01T09:11:00.101Z,53.87
2022-11-01T09:16:06.147Z,53.94
2022-11-01T09:21:09.233Z,54.08
2022-11-01T09:26:13.280Z,54.56
2022-11-01T09:31:20.784Z,54.66
2022-11-01T09:36:24.385Z,54.99
2022-11-01T09:41:33.650Z,55.07
2022-11-01T09:46:46.611Z,55.09
2022-11-01T09:51:49.336Z,55.05
2022-11-01T09:56:59.233Z,55.51
2022-11-01T10:02:11.013Z,55.65
2022-11-01T10:07:17.983Z,55.85
2022-11-01T10:12:28.502Z,56.09
2022-11-01T10:17:50.889Z,56.14
2022-11-01T10:22:54.776Z,56.05
2022-11-01T10:28:04.686Z,55.91
2022-11-01T10:33:25.788Z,55.77
2022-11-01T10:44:02.149Z,55.22
2022-11-01T10:49:06.410Z,55.31
2022-11-01T10:54:12.315Z,55.10
2022-11-01T10:59:18.108Z,55.02
2022-11-01T11:04:22.128Z,54.80
2022-11-01T11:09:28.042Z,54.85
2022-11-01T11:14:33.299Z,54.90
2022-11-01T11:19:38.277Z,55.02
2022-11-01T11:24:42.316Z,55.11
2022-11-01T11:29:49.164Z,54.93
2022-11-01T11:34:56.528Z,55.20
2022-11-01T11:40:08.033Z,55.50
2022-11-01T11:45:21.519Z,55.52
2022-11-01T11:50:32.189Z,55.57
2022-11-01T11:55:42.027Z,55.48
2022-11-01T12:00:48.792Z,55.54
2022-11-01T12:05:55.634Z,55.44
2022-11-01T12:10:58.887Z,55.25
2022-11-01T12:16:20.555Z,55.19
2022-11-01T12:21:25.789Z,54.99
2022-11-01T12:26:29.023Z,55.30
2022-11-01T12:31:33.059Z,55.54
2022-11-01T12:36:37.076Z,55.68
2022-11-01T12:41:43.783Z,55.60
2022-11-01T12:46:49.991Z,55.65
2022-11-01T12:51:53.651Z,55.62
2022-11-01T12:56:56.712Z,55.55
2022-11-01T13:02:03.367Z,55.40
2022-11-01T13:07:12.724Z,55.16
2022-11-01T13:12:19.746Z,55.19
2022-11-01T13:17:26.694Z,55.23
2022-11-01T13:22:32.879Z,55.25
2022-11-01T13:27:37.374Z,55.23
2022-11-01T13:32:44.582Z,55.42
2022-11-01T13:37:49.427Z,55.25
2022-11-01T13:42:53.909Z,55.28
2022-11-01T13:47:58.384Z,54.99
2022-11-01T13:53:04.468Z,55.42
2022-11-01T13:58:07.196Z,55.38
2022-11-01T14:03:24.345Z,55.80
2022-11-01T14:08:28.732Z,55.73
2022-11-01T14:13:33.325Z,56.06
2022-11-01T14:19:13.675Z,56.73
2022-11-01T14:24:24.277Z,56.60
2022-11-01T14:29:26.954Z,56.46
2022-11-01T14:34:35.347Z,56.68
2022-11-01T14:39:39.472Z,56.68
2022-11-01T14:44:46.792Z,56.67
2022-11-01T14:49:54.089Z,56.48
2022-11-01T14:54:59.282Z,56.62
2022-11-01T15:00:20.816Z,56.06
2022-11-01T15:05:25.599Z,56.30
2022-11-01T15:10:28.713Z,56.04
2022-11-01T15:15:33.545Z,55.59
2022-11-01T15:20:39.799Z,55.00
2022-11-01T15:25:44.320Z,54.53
2022-11-01T15:30:47.498Z,54.25
2022-11-01T15:35:56.238Z,53.96
2022-11-01T15:40:58.969Z,53.78
2022-11-01T15:46:02.464Z,53.68
2022-11-01T15:51:08.985Z,53.43
2022-11-01T15:56:12.769Z,53.50
2022-11-01T16:01:16.776Z,53.20
2022-11-01T16:06:22.734Z,53.16
2022-11-01T16:11:26.276Z,53.64
2022-11-01T16:16:29.192Z,53.84
2022-11-01T16:21:33.991Z,54.22
2022-11-01T16:26:54.700Z,53.93
2022-11-01T16:32:09.496Z,54.04
2022-11-01T16:37:23.865Z,53.74
2022-11-01T16:42:27.246Z,53.74
2022-11-01T16:47:30.138Z,53.69
2022-11-01T16:52:35.428Z,53.69
2022-11-01T16:57:38.121Z,53.62
2022-11-01T17:02:40.919Z,53.60
2022-11-01T17:07:45.272Z,53.76
2022-11-01T17:12:48.252Z,53.96
2022-11-01T17:17:51.175Z,54.51
2022-11-01T17:22:56.167Z,54.66
2022-11-01T17:27:58.843Z,53.98
2022-11-01T17:33:01.873Z,54.42
2022-11-01T17:38:06.758Z,53.75
2022-11-01T17:43:10.452Z,53.70
2022-11-01T17:48:13.378Z,53.58
2022-11-01T17:53:18.217Z,53.40
2022-11-01T17:58:20.973Z,53.41
2022-11-01T18:03:24.038Z,53.21
2022-11-01T18:08:28.723Z,53.11
2022-11-01T18:13:36.888Z,52.93
2022-11-01T18:18:48.560Z,53.04
2022-11-01T18:23:52.784Z,53.17
2022-11-01T18:28:55.595Z,53.14
2022-11-01T18:34:00.285Z,52.97
2022-11-01T18:39:13.954Z,53.10
2022-11-01T18:44:16.840Z,53.07
2022-11-01T18:49:19.485Z,52.99
2022-11-01T18:54:26.027Z,53.14
2022-11-01T18:59:30.106Z,53.15
2022-11-01T19:04:35.600Z,52.84
2022-11-01T19:09:40.293Z,52.89
2022-11-01T19:14:44.029Z,53.21
2022-11-01T19:19:47.370Z,53.21
2022-11-01T19:24:51.478Z,53.49
2022-11-01T19:29:57.867Z,53.55
2022-11-01T19:35:01.094Z,53.71
2022-11-01T19:40:05.944Z,53.56
2022-11-01T19:45:28.929Z,53.73
2022-11-01T19:50:39.259Z,53.73
2022-11-01T19:55:46.520Z,53.68
2022-11-01T20:00:49.612Z,53.37
2022-11-01T20:05:52.512Z,53.79
2022-11-01T20:10:56.599Z,54.06
2022-11-01T20:15:59.335Z,53.58
2022-11-01T20:21:05.823Z,53.46
2022-11-01T20:26:12.103Z,53.52
2022-11-01T20:31:14.983Z,53.41
2022-11-01T20:36:17.834Z,53.45
2022-11-01T20:41:22.294Z,53.34
2022-11-01T20:46:25.315Z,53.19
2022-11-01T20:51:30.015Z,53.50
2022-11-01T20:56:34.333Z,53.30
2022-11-01T21:01:37.087Z,52.99
2022-11-01T21:06:40.231Z,52.97
2022-11-01T21:11:47.391Z,53.11
2022-11-01T21:16:50.075Z,53.07
2022-11-01T21:21:53.496Z,52.94
2022-11-01T21:27:19.965Z,53.02
2022-11-01T21:32:25.834Z,52.65
2022-11-01T21:37:29.557Z,53.00
2022-11-01T21:42:34.227Z,52.94
2022-11-01T21:47:37.735Z,52.52
2022-11-01T21:52:42.503Z,52.72
2022-11-01T21:57:46.910Z,52.54
2022-11-01T22:02:49.628Z,52.44
2022-11-01T22:07:52.445Z,52.21
2022-11-01T22:12:56.537Z,52.37
2022-11-01T22:17:59.203Z,52.25
2022-11-01T22:23:02.208Z,52.15
2022-11-01T22:28:07.132Z,52.21
2022-11-01T22:33:11.124Z,52.43
2022-11-01T22:38:16.074Z,52.19
2022-11-01T22:43:20.071Z,52.31
2022-11-01T22:48:23.842Z,52.51
2022-11-01T22:53:26.519Z,52.29
2022-11-01T22:58:34.100Z,52.43
2022-11-01T23:03:37.602Z,52.40
2022-11-01T23:08:40.382Z,52.89
2022-11-01T23:14:02.155Z,52.84
2022-11-01T23:19:09.053Z,52.97
2022-11-01T23:24:14.233Z,53.15
2022-11-01T23:29:18.231Z,53.17
2022-11-01T23:34:20.873Z,53.22
2022-11-01T23:39:23.567Z,53.37
2022-11-01T23:44:28.691Z,53.37
2022-11-01T23:49:32.677Z,53.41
2022-11-01T23:54:38.931Z,53.81
2022-11-01T23:59:42.998Z,54.30
